Elkins-Randolph Co-Jennings Randolph Field Elkins US
ICAO: KEKN
IATA: EKN
Category: Medium
Scheduled Services: No

Elevation: 1987 ft
TransAlt. 18000 ft.

Airport Communications:
CLARKSBURG APP/DEP:121.15
ASOS:119.275
CTAF:123.6
RDO:122.2

KEKN Zoom In..

Runways:

(A) RW 05 length 4501 ft width 140 ft
---- / hdg 46

(B) RW 14 length 4544 ft width 140 ft
---- / hdg 136

(C) RW 23 length 4501 ft width 140 ft
---- / hdg 226

(D) RW 32 length 4544 ft width 140 ft
---- / hdg 316

Location; KEKN
Day. 20 / Time. 09.51 Zulu
* Altimeter: 30.31
* Temperature: -02° c. -28.4°f.
* Wind from: 000° Speed 00 kn.
Dewpoint: -07° c.
Visibility: 10 Statute Miles.
Clouds: Clear (automated report).

KEKN 200951Z AUTO 00000KT 10SM CLR M02/M07 A3031 RMK AO2 SLP287 T10221067 TSNO


Wind - Calm.

  YouTube Music Video
 
jpsmedia.com for Web Design  worldairports.se 2018   terms of use